createdAt,value
2023-12-22T00:00:23.142Z,2.67
2023-12-22T00:02:51.193Z,2.72
2023-12-22T00:05:19.285Z,3.47
2023-12-22T00:07:47.481Z,3.35
2023-12-22T00:10:15.675Z,3.58
2023-12-22T00:12:43.511Z,3.42
2023-12-22T00:15:11.644Z,2.30
2023-12-22T00:17:41.043Z,2.60
2023-12-22T00:20:14.298Z,2.85
2023-12-22T00:22:42.494Z,1.90
2023-12-22T00:25:11.059Z,1.77
2023-12-22T00:27:38.981Z,2.30
2023-12-22T00:30:08.164Z,1.85
2023-12-22T00:32:36.084Z,1.70
2023-12-22T00:35:06.526Z,1.95
2023-12-22T00:37:34.420Z,1.88
2023-12-22T00:40:03.293Z,1.80
2023-12-22T00:42:31.102Z,2.15
2023-12-22T00:44:59.264Z,1.90
2023-12-22T00:47:27.297Z,1.67
2023-12-22T00:49:55.499Z,1.48
2023-12-22T00:52:24.852Z,1.63
2023-12-22T00:54:52.961Z,1.45
2023-12-22T00:57:20.865Z,1.60
2023-12-22T00:59:49.589Z,1.38
2023-12-22T01:02:17.885Z,1.52
2023-12-22T01:04:46.036Z,1.30
2023-12-22T01:07:15.248Z,1.75
2023-12-22T01:09:44.661Z,1.88
2023-12-22T01:12:12.793Z,1.70
2023-12-22T01:14:40.722Z,1.80
2023-12-22T01:17:08.859Z,1.70
2023-12-22T01:19:36.818Z,1.80
2023-12-22T01:22:05.492Z,2.20
2023-12-22T01:24:34.605Z,1.80
2023-12-22T01:27:03.994Z,2.00
2023-12-22T01:29:31.908Z,1.88
2023-12-22T01:31:59.778Z,1.88
2023-12-22T01:34:27.819Z,1.90
2023-12-22T01:36:55.733Z,2.47
2023-12-22T01:39:23.737Z,2.50
2023-12-22T01:41:51.944Z,2.00
2023-12-22T01:44:21.257Z,2.13
2023-12-22T01:46:49.251Z,1.98
2023-12-22T01:49:17.541Z,2.13
2023-12-22T01:51:46.195Z,2.50
2023-12-22T01:54:15.111Z,2.42
2023-12-22T01:56:43.102Z,2.47
2023-12-22T01:59:11.479Z,3.03
2023-12-22T02:01:40.841Z,2.38
2023-12-22T02:04:09.138Z,2.70
2023-12-22T02:06:38.183Z,2.50
2023-12-22T02:09:07.734Z,2.70
2023-12-22T02:11:35.614Z,2.22
2023-12-22T02:14:03.822Z,2.72
2023-12-22T02:16:37.370Z,2.60
2023-12-22T02:19:14.425Z,2.75
2023-12-22T02:22:07.530Z,2.67
2023-12-22T02:24:38.826Z,2.88
2023-12-22T02:27:08.936Z,3.22
2023-12-22T02:29:40.011Z,2.65
2023-12-22T02:32:10.232Z,2.90
2023-12-22T02:34:39.384Z,3.13
2023-12-22T02:37:10.430Z,3.00
2023-12-22T02:39:40.805Z,3.65
2023-12-22T02:42:08.820Z,3.05
2023-12-22T02:44:36.868Z,3.05
2023-12-22T02:47:04.929Z,2.63
2023-12-22T02:49:32.970Z,3.13
2023-12-22T02:52:00.898Z,3.17
2023-12-22T02:54:31.165Z,3.38
2023-12-22T02:57:01.309Z,3.45
2023-12-22T02:59:29.946Z,3.45
2023-12-22T03:01:58.142Z,4.05
2023-12-22T03:04:26.170Z,3.72
2023-12-22T03:06:54.146Z,3.67
2023-12-22T03:09:22.930Z,4.65
2023-12-22T03:11:53.015Z,4.65
2023-12-22T03:14:22.430Z,4.00
2023-12-22T03:16:50.336Z,3.88
2023-12-22T03:19:18.427Z,4.75
2023-12-22T03:21:46.367Z,4.40
2023-12-22T03:24:14.438Z,4.38
2023-12-22T03:26:42.416Z,5.03
2023-12-22T03:29:10.383Z,4.28
2023-12-22T03:31:39.906Z,3.30
2023-12-22T03:34:08.133Z,2.85
2023-12-22T03:36:36.415Z,3.22
2023-12-22T03:39:04.748Z,3.42
2023-12-22T03:41:31.810Z,2.65
2023-12-22T03:43:59.824Z,3.75
2023-12-22T03:46:27.901Z,2.65
2023-12-22T03:48:57.339Z,2.17
2023-12-22T03:51:25.348Z,2.50
2023-12-22T03:53:53.380Z,2.05
2023-12-22T03:56:21.531Z,2.15
2023-12-22T03:58:49.689Z,1.80
2023-12-22T04:01:17.803Z,2.03
2023-12-22T04:03:45.688Z,2.00
2023-12-22T04:06:15.270Z,2.10
2023-12-22T04:08:43.234Z,2.03
2023-12-22T04:11:11.937Z,1.95
2023-12-22T04:13:39.872Z,1.65
2023-12-22T04:16:08.388Z,1.60
2023-12-22T04:18:36.475Z,1.90
2023-12-22T04:21:04.831Z,1.77
2023-12-22T04:23:34.026Z,1.98
2023-12-22T04:26:02.878Z,1.83
2023-12-22T04:28:30.967Z,2.15
2023-12-22T04:30:58.881Z,2.28
2023-12-22T04:33:26.864Z,2.20
2023-12-22T04:35:54.691Z,2.17
2023-12-22T04:38:22.777Z,2.75
2023-12-22T04:40:52.103Z,2.20
2023-12-22T04:43:20.091Z,2.70
2023-12-22T04:45:48.112Z,2.75
2023-12-22T04:48:16.184Z,2.58
2023-12-22T04:50:44.111Z,2.90
2023-12-22T04:53:12.280Z,3.10
2023-12-22T04:55:40.289Z,2.47
2023-12-22T04:58:09.657Z,3.03
2023-12-22T05:00:37.678Z,2.97
2023-12-22T05:03:06.118Z,3.28
2023-12-22T05:05:34.139Z,3.30
2023-12-22T05:08:02.264Z,3.17
2023-12-22T05:10:30.327Z,3.35
2023-12-22T05:12:58.333Z,3.08
2023-12-22T05:15:27.601Z,3.60
2023-12-22T05:17:55.591Z,3.00
2023-12-22T05:20:23.634Z,3.03
2023-12-22T05:22:51.550Z,2.97
2023-12-22T05:25:19.771Z,2.90
2023-12-22T05:27:48.104Z,3.03
2023-12-22T05:30:16.467Z,3.10
2023-12-22T05:32:46.711Z,3.10
2023-12-22T05:35:15.140Z,3.30
2023-12-22T05:37:43.198Z,3.20
2023-12-22T05:40:13.078Z,4.10
2023-12-22T05:42:41.133Z,3.50
2023-12-22T05:45:12.173Z,3.70
2023-12-22T05:47:40.358Z,4.20
2023-12-22T05:50:12.242Z,3.80
2023-12-22T05:52:40.422Z,3.55
2023-12-22T05:55:09.820Z,4.10
2023-12-22T05:57:38.251Z,3.72
2023-12-22T06:00:08.939Z,3.17
2023-12-22T06:02:37.129Z,3.55
2023-12-22T06:05:05.560Z,3.03
2023-12-22T06:07:34.990Z,3.65
2023-12-22T06:10:04.018Z,3.28
2023-12-22T06:12:32.264Z,3.15
2023-12-22T06:15:00.193Z,3.88
2023-12-22T06:17:28.325Z,3.40
2023-12-22T06:19:56.302Z,3.42
2023-12-22T06:22:24.809Z,3.30
2023-12-22T06:24:54.289Z,3.55
2023-12-22T06:27:22.375Z,3.92
2023-12-22T06:29:50.285Z,3.85
2023-12-22T06:32:19.009Z,4.05
2023-12-22T06:34:47.199Z,4.13
2023-12-22T06:37:15.180Z,3.72
2023-12-22T06:39:43.097Z,3.50
2023-12-22T06:42:13.585Z,3.83
2023-12-22T06:44:43.950Z,3.72
2023-12-22T06:47:12.145Z,3.67
2023-12-22T06:49:40.774Z,3.70
2023-12-22T06:52:09.097Z,4.13
2023-12-22T06:54:36.997Z,4.43
2023-12-22T06:57:06.203Z,3.53
2023-12-22T06:59:37.358Z,4.10
2023-12-22T07:02:14.024Z,4.18
2023-12-22T07:05:07.825Z,3.88
2023-12-22T07:07:36.838Z,4.35
2023-12-22T07:10:05.717Z,4.43
2023-12-22T07:12:33.799Z,5.30
2023-12-22T07:15:03.121Z,4.95
2023-12-22T07:17:31.295Z,4.57
2023-12-22T07:19:59.808Z,4.68
2023-12-22T07:22:27.897Z,5.07
2023-12-22T07:24:57.743Z,5.10
2023-12-22T07:27:27.819Z,4.85
2023-12-22T07:29:56.683Z,5.13
2023-12-22T07:32:26.111Z,5.43
2023-12-22T07:34:54.066Z,5.00
2023-12-22T07:37:23.575Z,5.15
2023-12-22T07:39:52.019Z,6.03
2023-12-22T07:42:20.309Z,4.40
2023-12-22T07:44:48.233Z,5.90
2023-12-22T07:47:16.884Z,5.72
2023-12-22T07:49:47.945Z,5.28
2023-12-22T07:52:16.369Z,5.93
2023-12-22T07:54:44.598Z,5.25
2023-12-22T07:57:12.586Z,5.72
2023-12-22T07:59:40.537Z,6.35
2023-12-22T08:02:08.504Z,5.25
2023-12-22T08:04:35.620Z,5.22
2023-12-22T08:07:05.142Z,4.00
2023-12-22T08:09:34.060Z,4.10
2023-12-22T08:12:03.262Z,3.95
2023-12-22T08:14:31.292Z,4.22
2023-12-22T08:16:59.419Z,3.40
2023-12-22T08:19:29.998Z,3.90
2023-12-22T08:22:01.286Z,3.75
2023-12-22T08:24:33.024Z,4.28
2023-12-22T08:27:00.945Z,5.03
2023-12-22T08:29:29.136Z,4.80
2023-12-22T08:31:57.380Z,4.68
2023-12-22T08:34:25.588Z,4.65
2023-12-22T08:36:53.586Z,5.53
2023-12-22T08:39:21.941Z,4.90
2023-12-22T08:41:51.433Z,5.53
2023-12-22T08:44:20.279Z,5.15
2023-12-22T08:46:48.401Z,5.68
2023-12-22T08:49:16.519Z,4.90
2023-12-22T08:51:44.580Z,5.38
2023-12-22T08:54:12.768Z,4.43
2023-12-22T08:56:40.679Z,4.28
2023-12-22T08:59:11.237Z,4.22
2023-12-22T09:01:39.266Z,3.65
2023-12-22T09:04:09.631Z,3.45
2023-12-22T09:06:37.839Z,3.30
2023-12-22T09:09:05.833Z,3.75
2023-12-22T09:11:33.894Z,4.30
2023-12-22T09:14:02.168Z,3.70
2023-12-22T09:16:31.706Z,3.35
2023-12-22T09:18:59.598Z,3.38
2023-12-22T09:21:27.913Z,3.28
2023-12-22T09:23:55.887Z,3.22
2023-12-22T09:26:25.370Z,3.20
2023-12-22T09:28:55.314Z,3.58
2023-12-22T09:31:23.815Z,3.22
2023-12-22T09:33:53.354Z,3.30
2023-12-22T09:36:22.280Z,2.22
2023-12-22T09:38:50.540Z,1.90
2023-12-22T09:41:18.646Z,1.73
2023-12-22T09:43:49.657Z,1.88
2023-12-22T09:46:18.227Z,1.65
2023-12-22T09:48:47.325Z,1.40
2023-12-22T09:51:19.233Z,1.70
2023-12-22T09:53:47.712Z,1.23
2023-12-22T09:56:16.358Z,1.08
2023-12-22T09:58:46.132Z,1.20
2023-12-22T10:01:14.874Z,1.20
2023-12-22T10:03:47.584Z,1.05
2023-12-22T10:06:18.605Z,1.20
2023-12-22T10:08:47.134Z,1.30
2023-12-22T10:11:15.996Z,1.75
2023-12-22T10:13:44.235Z,2.05
2023-12-22T10:16:12.209Z,1.80
2023-12-22T10:18:40.170Z,2.35
2023-12-22T10:21:08.298Z,2.42
2023-12-22T10:23:37.805Z,2.30
2023-12-22T10:26:06.484Z,2.55
2023-12-22T10:28:34.400Z,2.03
2023-12-22T10:31:07.632Z,1.90
2023-12-22T10:33:36.106Z,1.97
2023-12-22T10:36:04.290Z,2.72
2023-12-22T10:38:35.974Z,2.63
2023-12-22T10:41:05.834Z,3.00
2023-12-22T10:43:39.299Z,2.20
2023-12-22T10:46:08.835Z,2.00
2023-12-22T10:48:36.800Z,2.15
2023-12-22T10:51:05.196Z,2.05
2023-12-22T10:53:33.258Z,2.30
2023-12-22T10:56:01.402Z,2.17
2023-12-22T10:58:32.014Z,2.20
2023-12-22T11:01:00.380Z,1.90
2023-12-22T11:03:29.226Z,2.20
2023-12-22T11:05:57.494Z,2.22
2023-12-22T11:08:26.433Z,2.15
2023-12-22T11:10:57.861Z,2.15
2023-12-22T11:13:26.506Z,2.40
2023-12-22T11:15:56.842Z,1.70
2023-12-22T11:18:25.157Z,2.20
2023-12-22T11:20:53.805Z,2.45
2023-12-22T11:23:22.544Z,3.63
2023-12-22T11:25:51.708Z,6.32
2023-12-22T11:28:23.076Z,3.08
2023-12-22T11:30:55.449Z,2.35
2023-12-22T11:33:28.665Z,2.40
2023-12-22T11:35:58.261Z,2.30
2023-12-22T11:38:26.289Z,2.00
2023-12-22T11:40:54.629Z,2.33
2023-12-22T11:43:22.756Z,2.03
2023-12-22T11:45:51.354Z,3.00
2023-12-22T11:48:19.585Z,2.28
2023-12-22T11:50:49.315Z,2.15
2023-12-22T11:53:20.995Z,2.17
2023-12-22T11:56:02.509Z,2.28
2023-12-22T11:58:40.675Z,1.80
2023-12-22T12:01:10.437Z,2.40
2023-12-22T12:03:40.479Z,2.45
2023-12-22T12:06:24.219Z,2.42
2023-12-22T12:08:52.526Z,2.00
2023-12-22T12:11:20.913Z,2.10
2023-12-22T12:13:50.966Z,2.35
2023-12-22T12:16:22.608Z,1.88
2023-12-22T12:18:51.419Z,2.20
2023-12-22T12:21:20.702Z,2.17
2023-12-22T12:23:51.093Z,2.35
2023-12-22T12:26:19.736Z,2.60
2023-12-22T12:28:48.584Z,2.50
2023-12-22T12:31:16.525Z,2.65
2023-12-22T12:33:44.861Z,2.38
2023-12-22T12:36:14.186Z,1.85
2023-12-22T12:38:54.014Z,2.25
2023-12-22T12:41:29.511Z,2.08
2023-12-22T12:43:59.051Z,2.17
2023-12-22T12:46:34.815Z,2.53
2023-12-22T12:49:07.344Z,2.28
2023-12-22T12:51:39.724Z,2.33
2023-12-22T12:54:09.470Z,1.80
2023-12-22T12:56:41.381Z,2.08
2023-12-22T12:59:10.694Z,1.88
2023-12-22T13:01:41.969Z,2.30
2023-12-22T13:04:10.331Z,2.00
2023-12-22T13:06:45.286Z,2.08
2023-12-22T13:09:15.660Z,2.15
2023-12-22T13:11:44.768Z,2.10
2023-12-22T13:14:13.099Z,2.60
2023-12-22T13:16:42.153Z,2.22
2023-12-22T13:19:10.318Z,2.45
2023-12-22T13:21:38.499Z,2.42
2023-12-22T13:24:11.073Z,2.60
2023-12-22T13:26:41.156Z,2.63
2023-12-22T13:29:09.468Z,1.95
2023-12-22T13:31:39.695Z,2.20
2023-12-22T13:34:11.295Z,2.53
2023-12-22T13:36:39.383Z,2.55
2023-12-22T13:39:08.088Z,2.53
2023-12-22T13:41:39.524Z,2.08
2023-12-22T13:44:10.692Z,2.42
2023-12-22T13:46:41.978Z,2.45
2023-12-22T13:49:10.732Z,2.38
2023-12-22T13:51:43.065Z,2.20
2023-12-22T13:54:11.397Z,1.70
2023-12-22T13:56:41.654Z,2.20
2023-12-22T13:59:12.168Z,2.40
2023-12-22T14:01:41.493Z,2.25
2023-12-22T14:04:11.503Z,2.63
2023-12-22T14:06:40.172Z,2.30
2023-12-22T14:09:08.472Z,2.42
2023-12-22T14:11:36.557Z,2.78
2023-12-22T14:14:04.645Z,3.00
2023-12-22T14:16:33.976Z,2.40
2023-12-22T14:19:02.694Z,2.75
2023-12-22T14:21:30.610Z,2.33
2023-12-22T14:23:58.906Z,2.40
2023-12-22T14:26:26.816Z,2.85
2023-12-22T14:28:55.062Z,2.60
2023-12-22T14:31:23.120Z,2.70
2023-12-22T14:33:52.531Z,3.03
2023-12-22T14:36:20.859Z,2.42
2023-12-22T14:38:48.830Z,3.17
2023-12-22T14:41:16.863Z,3.03
2023-12-22T14:43:44.984Z,3.58
2023-12-22T14:46:13.082Z,9.55
2023-12-22T14:48:41.213Z,4.10
2023-12-22T14:51:10.694Z,3.25
2023-12-22T14:53:38.560Z,3.60
2023-12-22T14:56:07.611Z,3.17
2023-12-22T14:58:36.832Z,3.63
2023-12-22T15:01:06.002Z,4.15
2023-12-22T15:03:34.153Z,4.38
2023-12-22T15:06:05.293Z,3.22
2023-12-22T15:08:38.266Z,3.45
2023-12-22T15:11:09.623Z,3.58
2023-12-22T15:13:37.981Z,3.05
2023-12-22T15:16:06.900Z,3.15
2023-12-22T15:18:34.949Z,3.33
2023-12-22T15:21:03.973Z,3.78
2023-12-22T15:23:32.495Z,3.85
2023-12-22T15:26:02.400Z,3.63
2023-12-22T15:28:30.436Z,4.50
2023-12-22T15:30:58.339Z,3.75
2023-12-22T15:33:26.538Z,2.92
2023-12-22T15:35:57.061Z,3.58
2023-12-22T15:38:24.952Z,3.70
2023-12-22T15:40:53.081Z,3.80
2023-12-22T15:43:22.366Z,3.95
2023-12-22T15:45:50.473Z,3.88
2023-12-22T15:48:18.587Z,4.82
2023-12-22T15:50:47.782Z,4.28
2023-12-22T15:53:15.811Z,4.15
2023-12-22T15:55:43.894Z,4.15
2023-12-22T15:58:12.084Z,3.90
2023-12-22T16:00:41.504Z,4.60
2023-12-22T16:03:09.538Z,8.10
2023-12-22T16:05:37.960Z,5.25
2023-12-22T16:08:06.816Z,4.43
2023-12-22T16:10:34.694Z,4.70
2023-12-22T16:13:04.284Z,4.07
2023-12-22T16:15:32.274Z,3.90
2023-12-22T16:18:02.152Z,4.53
2023-12-22T16:20:30.854Z,4.38
2023-12-22T16:23:01.853Z,4.20
2023-12-22T16:25:33.533Z,3.70
2023-12-22T16:28:02.151Z,4.53
2023-12-22T16:30:30.230Z,3.75
2023-12-22T16:32:58.326Z,3.92
2023-12-22T16:35:27.754Z,3.78
2023-12-22T16:37:55.898Z,4.43
2023-12-22T16:40:24.296Z,4.00
2023-12-22T16:42:52.478Z,4.43
2023-12-22T16:45:20.560Z,3.95
2023-12-22T16:47:48.629Z,4.10
2023-12-22T16:50:16.796Z,3.83
2023-12-22T16:52:46.506Z,4.20
2023-12-22T16:55:18.895Z,5.15
2023-12-22T16:57:47.145Z,4.13
2023-12-22T17:00:18.148Z,3.90
2023-12-22T17:02:47.349Z,4.07
2023-12-22T17:05:15.784Z,3.90
2023-12-22T17:07:45.324Z,4.05
2023-12-22T17:10:15.355Z,4.22
2023-12-22T17:12:43.371Z,4.32
2023-12-22T17:15:12.781Z,5.40
2023-12-22T17:17:41.270Z,3.80
2023-12-22T17:20:10.958Z,3.90
2023-12-22T17:22:39.244Z,3.80
2023-12-22T17:25:07.659Z,3.83
2023-12-22T17:27:36.953Z,3.25
2023-12-22T17:30:05.468Z,3.90
2023-12-22T17:32:33.472Z,3.70
2023-12-22T17:35:01.760Z,4.28
2023-12-22T17:37:29.654Z,3.25
2023-12-22T17:39:57.953Z,3.28
2023-12-22T17:42:26.059Z,4.78
2023-12-22T17:44:55.636Z,3.33
2023-12-22T17:47:23.541Z,3.97
2023-12-22T17:49:51.502Z,4.22
2023-12-22T17:52:19.571Z,3.65
2023-12-22T17:54:47.465Z,2.78
2023-12-22T17:57:16.069Z,3.28
2023-12-22T17:59:44.284Z,2.92
2023-12-22T18:02:16.661Z,2.55
2023-12-22T18:04:44.786Z,2.50
2023-12-22T18:07:13.784Z,1.90
2023-12-22T18:09:41.882Z,2.13
2023-12-22T18:12:09.809Z,2.70
2023-12-22T18:14:37.769Z,2.45
2023-12-22T18:17:05.846Z,3.00
2023-12-22T18:19:35.274Z,2.67
2023-12-22T18:22:03.827Z,2.53
2023-12-22T18:24:31.939Z,2.38
2023-12-22T18:26:59.910Z,2.47
2023-12-22T18:29:27.753Z,2.53
2023-12-22T18:31:57.184Z,2.50
2023-12-22T18:34:25.050Z,3.03
2023-12-22T18:36:54.459Z,3.17
2023-12-22T18:39:22.311Z,3.35
2023-12-22T18:41:50.268Z,2.92
2023-12-22T18:44:18.181Z,2.58
2023-12-22T18:46:46.365Z,2.55
2023-12-22T18:49:16.591Z,1.85
2023-12-22T18:51:44.705Z,4.30
2023-12-22T18:54:14.136Z,4.90
2023-12-22T18:56:42.159Z,3.00
2023-12-22T18:59:10.296Z,2.83
2023-12-22T19:01:47.713Z,2.58
2023-12-22T19:04:22.910Z,2.93
2023-12-22T19:06:52.048Z,2.38
2023-12-22T19:09:21.375Z,2.10
2023-12-22T19:11:49.389Z,1.90
2023-12-22T19:14:17.423Z,2.75
2023-12-22T19:16:45.395Z,2.90
2023-12-22T19:19:13.925Z,2.40
2023-12-22T19:21:41.935Z,2.42
2023-12-22T19:24:09.889Z,2.17
2023-12-22T19:26:41.079Z,2.50
2023-12-22T19:29:09.358Z,2.10
2023-12-22T19:31:40.053Z,1.90
2023-12-22T19:34:08.169Z,2.53
2023-12-22T19:36:37.462Z,2.50
2023-12-22T19:39:05.779Z,2.38
2023-12-22T19:41:35.881Z,2.33
2023-12-22T19:44:06.330Z,2.78
2023-12-22T19:46:35.302Z,3.90
2023-12-22T19:49:03.673Z,4.07
2023-12-22T19:51:31.905Z,4.10
2023-12-22T19:53:59.803Z,3.92
2023-12-22T19:56:27.902Z,10.20
2023-12-22T19:58:55.861Z,5.68
2023-12-22T20:01:25.270Z,10.18
2023-12-22T20:03:53.237Z,4.32
2023-12-22T20:06:21.360Z,3.05
2023-12-22T20:08:49.403Z,4.22
2023-12-22T20:11:18.530Z,3.38
2023-12-22T20:13:46.828Z,7.05
2023-12-22T20:16:14.739Z,28.00
2023-12-22T20:18:44.645Z,24.75
2023-12-22T20:21:13.368Z,15.68
2023-12-22T20:23:41.373Z,5.13
2023-12-22T20:26:09.413Z,3.40
2023-12-22T20:28:38.762Z,5.40
2023-12-22T20:31:07.047Z,4.47
2023-12-22T20:33:35.055Z,4.45
2023-12-22T20:36:05.039Z,13.88
2023-12-22T20:38:32.868Z,7.07
2023-12-22T20:41:00.871Z,4.20
2023-12-22T20:43:28.808Z,4.65
2023-12-22T20:45:56.928Z,3.38
2023-12-22T20:48:26.121Z,4.68
2023-12-22T20:50:55.566Z,5.07
2023-12-22T20:53:25.050Z,8.82
2023-12-22T20:55:53.108Z,5.20
2023-12-22T20:58:22.251Z,6.22
2023-12-22T21:00:50.336Z,4.35
2023-12-22T21:03:18.473Z,3.72
2023-12-22T21:05:48.669Z,7.45
2023-12-22T21:08:17.158Z,4.45
2023-12-22T21:10:46.710Z,4.68
2023-12-22T21:13:14.629Z,6.85
2023-12-22T21:15:42.692Z,4.30
2023-12-22T21:18:10.975Z,14.63
2023-12-22T21:20:41.155Z,6.07
2023-12-22T21:23:15.295Z,3.28
2023-12-22T21:25:44.195Z,2.92
2023-12-22T21:28:14.405Z,3.13
2023-12-22T21:30:42.636Z,3.80
2023-12-22T21:33:11.743Z,3.17
2023-12-22T21:35:39.822Z,2.85
2023-12-22T21:38:07.861Z,2.80
2023-12-22T21:40:36.157Z,2.63
2023-12-22T21:43:04.007Z,2.90
2023-12-22T21:45:33.374Z,2.40
2023-12-22T21:48:01.431Z,2.78
2023-12-22T21:50:28.487Z,4.57
2023-12-22T21:52:58.650Z,3.08
2023-12-22T21:55:26.652Z,2.40
2023-12-22T21:57:54.597Z,2.38
2023-12-22T22:00:24.032Z,2.30
2023-12-22T22:02:53.460Z,2.90
2023-12-22T22:05:21.426Z,2.58
2023-12-22T22:07:49.842Z,2.25
2023-12-22T22:10:18.461Z,2.47
2023-12-22T22:12:50.831Z,2.78
2023-12-22T22:15:20.280Z,2.95
2023-12-22T22:17:48.602Z,2.90
2023-12-22T22:20:18.236Z,2.42
2023-12-22T22:22:46.306Z,2.92
2023-12-22T22:25:14.366Z,3.00
2023-12-22T22:27:42.922Z,3.13
2023-12-22T22:30:11.550Z,2.63
2023-12-22T22:32:39.541Z,2.33
2023-12-22T22:35:07.961Z,2.33
2023-12-22T22:37:37.459Z,2.40
2023-12-22T22:40:06.722Z,3.05
2023-12-22T22:42:35.044Z,2.97
2023-12-22T22:45:03.170Z,2.33
2023-12-22T22:47:31.259Z,2.58
2023-12-22T22:49:59.295Z,2.53
2023-12-22T22:52:27.284Z,3.60
2023-12-22T22:54:56.558Z,3.20
2023-12-22T22:57:24.606Z,2.58
2023-12-22T22:59:52.638Z,3.10
2023-12-22T23:02:20.847Z,2.58
2023-12-22T23:04:49.039Z,2.50
2023-12-22T23:07:17.050Z,2.45
2023-12-22T23:09:45.059Z,2.35
2023-12-22T23:12:14.469Z,2.28
2023-12-22T23:14:42.361Z,2.00
2023-12-22T23:17:11.030Z,2.42
2023-12-22T23:19:39.280Z,2.20
2023-12-22T23:22:08.314Z,2.22
2023-12-22T23:24:36.777Z,2.58
2023-12-22T23:27:05.155Z,3.17
2023-12-22T23:29:34.687Z,3.33
2023-12-22T23:32:02.652Z,3.25
2023-12-22T23:34:30.486Z,3.70
2023-12-22T23:36:58.455Z,3.10
2023-12-22T23:39:26.351Z,2.83
2023-12-22T23:41:55.206Z,3.25
2023-12-22T23:44:23.130Z,2.95
2023-12-22T23:46:52.700Z,2.63
2023-12-22T23:49:20.693Z,2.78
2023-12-22T23:51:48.650Z,2.47
2023-12-22T23:54:16.619Z,2.30
2023-12-22T23:56:46.932Z,2.17
2023-12-22T23:59:14.954Z,2.33
